createdAt,value
2022-10-23T00:00:44.686Z,9.00
2022-10-23T00:06:10.375Z,8.25
2022-10-23T00:11:15.805Z,7.95
2022-10-23T00:16:19.547Z,7.35
2022-10-23T00:21:24.665Z,7.43
2022-10-23T00:26:28.170Z,7.97
2022-10-23T00:31:31.472Z,8.32
2022-10-23T00:36:36.552Z,7.35
2022-10-23T00:41:39.840Z,7.25
2022-10-23T00:46:43.164Z,8.23
2022-10-23T00:51:52.510Z,9.13
2022-10-23T00:56:59.731Z,7.68
2022-10-23T01:02:03.201Z,8.10
2022-10-23T01:07:16.131Z,8.60
2022-10-23T01:17:39.679Z,8.48
2022-10-23T01:23:13.289Z,9.43
2022-10-23T01:28:24.567Z,9.10
2022-10-23T01:33:34.164Z,8.93
2022-10-23T01:38:42.117Z,9.10
2022-10-23T01:43:50.905Z,9.15
2022-10-23T01:48:56.347Z,7.95
2022-10-23T01:54:01.870Z,8.63
2022-10-23T01:59:11.016Z,8.63
2022-10-23T02:04:19.364Z,7.90
2022-10-23T02:09:22.972Z,8.10
2022-10-23T02:14:37.561Z,8.40
2022-10-23T02:19:47.919Z,8.38
2022-10-23T02:24:54.583Z,8.45
2022-10-23T02:30:06.292Z,7.13
2022-10-23T02:35:10.193Z,8.07
2022-10-23T02:40:13.638Z,8.85
2022-10-23T02:45:24.835Z,7.43
2022-10-23T02:50:35.325Z,7.78
2022-10-23T02:55:47.634Z,6.95
2022-10-23T03:00:57.086Z,8.03
2022-10-23T03:06:00.865Z,7.53
2022-10-23T03:11:04.379Z,7.47
2022-10-23T03:16:09.655Z,7.30
2022-10-23T03:21:13.227Z,6.80
2022-10-23T03:26:16.996Z,6.82
2022-10-23T03:31:21.636Z,7.47
2022-10-23T03:36:24.962Z,7.22
2022-10-23T03:41:28.344Z,7.07
2022-10-23T03:46:33.218Z,6.78
2022-10-23T03:51:36.562Z,5.97
2022-10-23T03:56:39.899Z,6.03
2022-10-23T04:01:44.662Z,7.13
2022-10-23T04:06:48.096Z,7.65
2022-10-23T04:11:51.757Z,7.78
2022-10-23T04:16:56.745Z,8.05
2022-10-23T04:22:00.504Z,7.13
2022-10-23T04:27:04.236Z,7.22
2022-10-23T04:32:09.608Z,7.28
2022-10-23T04:37:13.164Z,6.78
2022-10-23T04:42:17.035Z,6.57
2022-10-23T04:47:21.791Z,6.40
2022-10-23T04:52:25.159Z,6.97
2022-10-23T04:57:28.721Z,6.88
2022-10-23T05:02:33.523Z,6.18
2022-10-23T05:07:37.476Z,6.40
2022-10-23T05:12:41.022Z,6.80
2022-10-23T05:17:49.023Z,5.72
2022-10-23T05:22:55.468Z,6.50
2022-10-23T05:27:59.040Z,6.07
2022-10-23T05:33:04.434Z,6.88
2022-10-23T05:38:09.406Z,6.97
2022-10-23T05:43:12.929Z,5.75
2022-10-23T05:48:33.346Z,5.60
2022-10-23T05:53:40.184Z,6.10
2022-10-23T05:58:46.102Z,6.80
2022-10-23T06:03:51.213Z,7.68
2022-10-23T06:08:55.317Z,7.68
2022-10-23T06:14:00.806Z,7.22
2022-10-23T06:19:05.949Z,7.68
2022-10-23T06:24:09.945Z,9.30
2022-10-23T06:29:13.210Z,8.35
2022-10-23T06:34:18.146Z,8.70
2022-10-23T06:39:22.451Z,9.48
2022-10-23T06:44:26.093Z,8.55
2022-10-23T06:49:31.164Z,8.48
2022-10-23T06:54:34.813Z,8.27
2022-10-23T06:59:38.191Z,8.40
2022-10-23T07:04:42.909Z,8.15
2022-10-23T07:09:46.270Z,6.63
2022-10-23T07:14:49.633Z,7.45
2022-10-23T07:19:54.871Z,7.88
2022-10-23T07:24:58.623Z,7.70
2022-10-23T07:30:01.911Z,8.18
2022-10-23T07:35:07.908Z,8.07
2022-10-23T07:40:12.242Z,7.88
2022-10-23T07:45:15.993Z,7.35
2022-10-23T07:50:20.863Z,7.68
2022-10-23T07:55:24.465Z,7.20
2022-10-23T08:00:27.896Z,7.47
2022-10-23T08:05:32.893Z,7.47
2022-10-23T08:10:36.421Z,7.60
2022-10-23T08:15:40.003Z,8.15
2022-10-23T08:20:46.770Z,8.23
2022-10-23T08:25:50.400Z,8.20
2022-10-23T08:30:53.869Z,8.25
2022-10-23T08:35:58.535Z,7.70
2022-10-23T08:41:02.849Z,7.72
2022-10-23T08:46:10.126Z,7.13
2022-10-23T08:51:18.706Z,7.13
2022-10-23T08:56:27.049Z,7.32
2022-10-23T09:01:38.695Z,7.05
2022-10-23T09:06:49.913Z,7.13
2022-10-23T09:12:01.207Z,6.88
2022-10-23T09:17:16.748Z,7.60
2022-10-23T09:22:21.379Z,6.13
2022-10-23T09:27:24.735Z,6.70
2022-10-23T09:32:35.944Z,6.55
2022-10-23T09:37:48.481Z,5.93
2022-10-23T09:42:57.644Z,6.97
2022-10-23T09:48:14.475Z,5.13
2022-10-23T09:53:33.189Z,5.80
2022-10-23T09:58:39.789Z,4.50
2022-10-23T10:03:50.287Z,3.97
2022-10-23T10:08:57.698Z,3.58
2022-10-23T10:14:24.081Z,3.35
2022-10-23T10:19:34.313Z,4.00
2022-10-23T10:24:47.205Z,3.28
2022-10-23T10:30:03.313Z,4.40
2022-10-23T10:35:23.344Z,3.92
2022-10-23T10:40:32.595Z,3.72
2022-10-23T10:45:40.335Z,3.15
2022-10-23T10:50:48.925Z,3.63
2022-10-23T10:55:56.827Z,3.50
2022-10-23T11:01:03.216Z,3.67
2022-10-23T11:06:14.057Z,3.65
2022-10-23T11:11:22.842Z,3.75
2022-10-23T11:16:30.442Z,4.30
2022-10-23T11:21:40.623Z,5.13
2022-10-23T11:26:58.359Z,3.30
2022-10-23T11:32:21.398Z,4.00
2022-10-23T11:37:26.830Z,3.60
2022-10-23T11:42:46.610Z,3.22
2022-10-23T11:47:58.788Z,3.60
2022-10-23T11:53:16.081Z,4.53
2022-10-23T11:58:24.091Z,2.97
2022-10-23T12:03:40.776Z,3.40
2022-10-23T12:08:44.788Z,3.70
2022-10-23T12:13:49.560Z,3.53
2022-10-23T12:18:55.784Z,3.42
2022-10-23T12:24:22.525Z,4.82
2022-10-23T12:29:41.027Z,3.80
2022-10-23T12:34:55.324Z,3.17
2022-10-23T12:40:01.990Z,2.85
2022-10-23T12:45:18.679Z,3.53
2022-10-23T12:50:23.834Z,3.30
2022-10-23T12:55:30.920Z,4.05
2022-10-23T13:00:38.212Z,3.67
2022-10-23T13:05:41.792Z,3.95
2022-10-23T13:10:45.598Z,3.50
2022-10-23T13:15:50.385Z,3.15
2022-10-23T13:20:59.528Z,3.70
2022-10-23T13:26:05.102Z,3.20
2022-10-23T13:31:27.165Z,4.95
2022-10-23T13:36:32.675Z,3.88
2022-10-23T13:41:39.368Z,3.53
2022-10-23T13:46:46.140Z,3.63
2022-10-23T13:51:51.921Z,4.03
2022-10-23T13:56:56.188Z,4.00
2022-10-23T14:02:01.231Z,3.17
2022-10-23T14:07:04.716Z,4.30
2022-10-23T14:12:08.474Z,3.90
2022-10-23T14:17:13.185Z,4.05
2022-10-23T14:22:16.607Z,4.07
2022-10-23T14:27:20.173Z,4.13
2022-10-23T14:32:24.844Z,4.00
2022-10-23T14:37:28.292Z,3.75
2022-10-23T14:42:34.352Z,4.50
2022-10-23T14:47:39.174Z,4.10
2022-10-23T14:52:42.430Z,3.80
2022-10-23T14:57:45.926Z,3.95
2022-10-23T15:02:51.134Z,4.38
2022-10-23T15:07:56.465Z,5.10
2022-10-23T15:12:59.809Z,4.45
2022-10-23T15:18:04.681Z,5.75
2022-10-23T15:23:08.044Z,5.70
2022-10-23T15:28:11.373Z,5.35
2022-10-23T15:33:19.211Z,6.75
2022-10-23T15:38:23.833Z,5.68
2022-10-23T15:43:27.313Z,7.78
2022-10-23T15:48:32.099Z,10.57
2022-10-23T15:53:35.429Z,9.25
2022-10-23T15:58:38.830Z,6.90
2022-10-23T16:03:43.759Z,7.00
2022-10-23T16:08:47.156Z,7.45
2022-10-23T16:13:51.066Z,7.15
2022-10-23T16:18:56.146Z,6.70
2022-10-23T16:24:01.512Z,7.55
2022-10-23T16:29:07.402Z,8.57
2022-10-23T16:34:12.511Z,7.85
2022-10-23T16:39:18.520Z,6.95
2022-10-23T16:44:21.789Z,7.70
2022-10-23T16:49:26.597Z,8.65
2022-10-23T16:54:29.999Z,12.10
2022-10-23T16:59:33.324Z,13.38
2022-10-23T17:04:39.000Z,12.75
2022-10-23T17:09:44.912Z,13.38
2022-10-23T17:14:48.295Z,12.55
2022-10-23T17:19:53.224Z,11.40
2022-10-23T17:24:56.740Z,9.10
2022-10-23T17:30:00.308Z,7.53
2022-10-23T17:35:07.998Z,7.88
2022-10-23T17:40:17.996Z,10.00
2022-10-23T17:45:24.414Z,11.50
2022-10-23T17:50:29.213Z,12.02
2022-10-23T17:55:32.566Z,10.93
2022-10-23T18:00:37.134Z,10.57
2022-10-23T18:05:41.805Z,11.90
2022-10-23T18:10:45.122Z,12.32
2022-10-23T18:15:48.623Z,9.95
2022-10-23T18:20:53.400Z,11.63
2022-10-23T18:25:57.406Z,12.27
2022-10-23T18:31:00.802Z,11.93
2022-10-23T18:36:13.325Z,11.93
2022-10-23T18:41:20.468Z,11.82
2022-10-23T18:46:23.887Z,10.18
2022-10-23T18:51:33.048Z,9.93
2022-10-23T18:56:38.317Z,9.45
2022-10-23T19:01:41.806Z,10.18
2022-10-23T19:06:47.597Z,9.43
2022-10-23T19:11:51.242Z,9.73
2022-10-23T19:17:01.030Z,7.97
2022-10-23T19:22:06.180Z,7.88
2022-10-23T19:27:09.905Z,6.88
2022-10-23T19:32:13.570Z,8.05
2022-10-23T19:37:18.243Z,9.48
2022-10-23T19:42:21.563Z,11.73
2022-10-23T19:47:25.128Z,7.93
2022-10-23T19:52:29.876Z,7.18
2022-10-23T19:57:34.802Z,8.05
2022-10-23T20:02:38.383Z,7.38
2022-10-23T20:07:44.067Z,6.57
2022-10-23T20:12:56.809Z,5.55
2022-10-23T20:18:06.397Z,5.70
2022-10-23T20:23:11.224Z,6.07
2022-10-23T20:28:15.339Z,7.60
2022-10-23T20:33:18.812Z,6.30
2022-10-23T20:38:23.419Z,6.43
2022-10-23T20:43:27.393Z,7.18
2022-10-23T20:48:35.208Z,6.72
2022-10-23T20:53:40.589Z,6.30
2022-10-23T20:58:43.979Z,6.68
2022-10-23T21:03:51.410Z,6.38
2022-10-23T21:08:57.876Z,6.80
2022-10-23T21:14:01.818Z,6.57
2022-10-23T21:19:07.007Z,6.85
2022-10-23T21:24:15.863Z,7.80
2022-10-23T21:29:20.494Z,8.32
2022-10-23T21:34:24.937Z,9.50
2022-10-23T21:39:29.759Z,8.05
2022-10-23T21:44:34.053Z,8.15
2022-10-23T21:49:37.423Z,9.27
2022-10-23T21:54:42.196Z,8.52
2022-10-23T21:59:45.718Z,9.82
2022-10-23T22:04:49.015Z,9.52
2022-10-23T22:09:53.727Z,10.75
2022-10-23T22:14:57.090Z,9.95
2022-10-23T22:20:00.631Z,9.77
2022-10-23T22:25:06.462Z,10.68
2022-10-23T22:30:10.431Z,9.88
2022-10-23T22:35:14.843Z,10.77
2022-10-23T22:40:19.639Z,10.25
2022-10-23T22:45:22.953Z,10.32
2022-10-23T22:50:26.260Z,9.88
2022-10-23T22:55:30.932Z,10.30
2022-10-23T23:00:34.498Z,11.45
2022-10-23T23:10:55.772Z,10.23
2022-10-23T23:15:59.396Z,10.43
2022-10-23T23:21:03.051Z,10.07
2022-10-23T23:26:08.396Z,9.93
2022-10-23T23:31:14.649Z,11.10
2022-10-23T23:36:21.295Z,10.25
2022-10-23T23:41:27.167Z,10.55
2022-10-23T23:46:31.059Z,10.45
2022-10-23T23:51:35.225Z,8.32
2022-10-23T23:56:40.137Z,10.70
